createdAt,value
2023-05-08T00:03:08.670Z,1012.073
2023-05-08T00:23:07.591Z,1011.997
2023-05-08T00:43:07.546Z,1012.124
2023-05-08T01:03:08.992Z,1012.096
2023-05-08T01:23:08.085Z,1012.001
2023-05-08T01:43:07.927Z,1012.056
2023-05-08T02:03:08.884Z,1012.111
2023-05-08T02:23:07.807Z,1012.091
2023-05-08T02:43:07.672Z,1011.982
2023-05-08T03:03:08.937Z,1012.01
2023-05-08T03:23:07.767Z,1011.907
2023-05-08T03:43:07.843Z,1011.906
2023-05-08T04:03:09.187Z,1011.9
2023-05-08T04:23:08.100Z,1011.839
2023-05-08T04:43:07.206Z,1011.89
2023-05-08T05:03:09.492Z,1012.018
2023-05-08T05:23:07.404Z,1012.041
2023-05-08T05:43:07.564Z,1012.264
2023-05-08T06:03:08.792Z,1012.378
2023-05-08T06:23:07.620Z,1012.524
2023-05-08T06:43:07.554Z,1012.594
2023-05-08T07:03:08.597Z,1012.655
2023-05-08T07:23:07.467Z,1012.54
2023-05-08T07:43:07.465Z,1012.472
2023-05-08T08:03:08.767Z,1012.341
2023-05-08T08:23:07.720Z,1012.226
2023-05-08T08:43:07.677Z,1012.159
2023-05-08T09:03:09.088Z,1012.212
2023-05-08T09:23:07.883Z,1012.294
2023-05-08T09:43:07.725Z,1012.365
2023-05-08T10:03:08.938Z,1012.327
2023-05-08T10:23:07.809Z,1012.233
2023-05-08T10:43:07.706Z,1012.123
2023-05-08T11:03:33.372Z,1012.022
2023-05-08T11:23:07.361Z,1011.998
2023-05-08T11:43:07.288Z,1011.923
2023-05-08T12:03:08.926Z,1011.793
2023-05-08T12:23:07.923Z,1011.766
2023-05-08T12:43:07.878Z,1011.518
2023-05-08T13:03:09.086Z,1011.484
2023-05-08T13:23:08.011Z,1011.436
2023-05-08T13:43:07.993Z,1011.307
2023-05-08T14:03:09.344Z,1011.289
2023-05-08T14:23:07.285Z,1011.443
2023-05-08T14:43:07.522Z,1011.643
2023-05-08T15:03:08.960Z,1011.75
2023-05-08T15:23:07.990Z,1011.672
2023-05-08T15:43:07.966Z,1011.487
2023-05-08T16:03:09.257Z,1011.508
2023-05-08T16:23:07.166Z,1011.475
2023-05-08T16:43:07.218Z,1011.297
2023-05-08T17:03:09.955Z,1011.133
2023-05-08T17:23:08.008Z,1011.039
2023-05-08T17:43:08.104Z,1011.015
2023-05-08T18:03:09.645Z,1011.162
2023-05-08T18:23:07.552Z,1011.07
2023-05-08T18:43:07.666Z,1011.105
2023-05-08T19:03:09.179Z,1011.028
2023-05-08T19:23:07.122Z,1011.065
2023-05-08T19:43:07.196Z,1011.102
2023-05-08T20:03:09.602Z,1010.997
2023-05-08T20:23:07.579Z,1010.957
2023-05-08T20:43:07.686Z,1010.947
2023-05-08T21:03:08.946Z,1010.825
2023-05-08T21:23:07.938Z,1010.738
2023-05-08T21:43:07.955Z,1010.588
2023-05-08T22:03:08.521Z,1010.499
2023-05-08T22:23:07.334Z,1010.349
2023-05-08T22:43:08.115Z,1010.166
2023-05-08T23:03:09.006Z,1010.042
2023-05-08T23:23:07.807Z,1009.976
2023-05-08T23:43:07.669Z,1009.8
